sensor_id;sensor_type;location;lat;lon;timestamp;temperature;humidity
42965;DHT22;28604;51.204;22.552;2023-06-24T00:02:14;21.80;91.80
42965;DHT22;28604;51.204;22.552;2023-06-24T00:04:40;21.80;91.70
42965;DHT22;28604;51.204;22.552;2023-06-24T00:07:06;21.80;91.70
42965;DHT22;28604;51.204;22.552;2023-06-24T00:09:32;21.80;91.40
42965;DHT22;28604;51.204;22.552;2023-06-24T00:11:59;21.90;91.70
42965;DHT22;28604;51.204;22.552;2023-06-24T00:14:26;21.90;91.60
42965;DHT22;28604;51.204;22.552;2023-06-24T00:16:55;21.90;91.70
42965;DHT22;28604;51.204;22.552;2023-06-24T00:19:24;21.90;91.70
42965;DHT22;28604;51.204;22.552;2023-06-24T00:21:51;21.90;91.70
42965;DHT22;28604;51.204;22.552;2023-06-24T00:24:18;21.90;91.50
42965;DHT22;28604;51.204;22.552;2023-06-24T00:26:48;21.80;91.60
42965;DHT22;28604;51.204;22.552;2023-06-24T00:29:14;21.80;91.90
42965;DHT22;28604;51.204;22.552;2023-06-24T00:31:41;21.80;91.60
42965;DHT22;28604;51.204;22.552;2023-06-24T00:34:07;21.80;91.70
42965;DHT22;28604;51.204;22.552;2023-06-24T00:36:33;21.80;91.60
42965;DHT22;28604;51.204;22.552;2023-06-24T00:39:03;21.70;91.80
42965;DHT22;28604;51.204;22.552;2023-06-24T00:41:34;21.80;91.50
42965;DHT22;28604;51.204;22.552;2023-06-24T00:44:01;21.80;91.30
42965;DHT22;28604;51.204;22.552;2023-06-24T00:46:28;21.90;91.10
42965;DHT22;28604;51.204;22.552;2023-06-24T00:48:55;21.80;91.10
42965;DHT22;28604;51.204;22.552;2023-06-24T00:51:22;21.90;91.10
42965;DHT22;28604;51.204;22.552;2023-06-24T00:53:56;21.90;90.90
42965;DHT22;28604;51.204;22.552;2023-06-24T00:56:22;21.90;90.70
42965;DHT22;28604;51.204;22.552;2023-06-24T00:58:50;21.80;90.50
42965;DHT22;28604;51.204;22.552;2023-06-24T01:01:18;21.80;90.10
42965;DHT22;28604;51.204;22.552;2023-06-24T01:03:45;21.80;89.10
42965;DHT22;28604;51.204;22.552;2023-06-24T01:06:13;21.70;88.50
42965;DHT22;28604;51.204;22.552;2023-06-24T01:08:39;21.60;87.90
42965;DHT22;28604;51.204;22.552;2023-06-24T01:11:05;21.60;87.40
42965;DHT22;28604;51.204;22.552;2023-06-24T01:13:31;21.60;87.00
42965;DHT22;28604;51.204;22.552;2023-06-24T01:16:00;21.50;86.90
42965;DHT22;28604;51.204;22.552;2023-06-24T01:18:46;21.40;87.00
42965;DHT22;28604;51.204;22.552;2023-06-24T01:21:29;21.40;87.30
42965;DHT22;28604;51.204;22.552;2023-06-24T01:26:52;21.30;86.70
42965;DHT22;28604;51.204;22.552;2023-06-24T01:37:18;21.20;86.90
42965;DHT22;28604;51.204;22.552;2023-06-24T01:39:53;21.10;87.00
42965;DHT22;28604;51.204;22.552;2023-06-24T01:42:21;21.10;86.80
42965;DHT22;28604;51.204;22.552;2023-06-24T01:44:48;21.10;87.60
42965;DHT22;28604;51.204;22.552;2023-06-24T01:47:21;21.10;87.60
42965;DHT22;28604;51.204;22.552;2023-06-24T01:49:52;21.00;86.60
42965;DHT22;28604;51.204;22.552;2023-06-24T01:52:21;20.90;86.40
42965;DHT22;28604;51.204;22.552;2023-06-24T01:54:50;20.90;86.30
42965;DHT22;28604;51.204;22.552;2023-06-24T01:57:17;20.90;86.10
42965;DHT22;28604;51.204;22.552;2023-06-24T01:59:45;20.80;86.00
42965;DHT22;28604;51.204;22.552;2023-06-24T02:02:13;20.80;86.20
42965;DHT22;28604;51.204;22.552;2023-06-24T02:04:39;20.70;86.40
42965;DHT22;28604;51.204;22.552;2023-06-24T02:07:07;20.60;86.50
42965;DHT22;28604;51.204;22.552;2023-06-24T02:09:38;20.50;86.40
42965;DHT22;28604;51.204;22.552;2023-06-24T02:12:05;20.60;86.30
42965;DHT22;28604;51.204;22.552;2023-06-24T02:14:32;20.60;86.20
42965;DHT22;28604;51.204;22.552;2023-06-24T02:17:00;20.60;86.00
42965;DHT22;28604;51.204;22.552;2023-06-24T02:19:29;20.60;86.10
42965;DHT22;28604;51.204;22.552;2023-06-24T02:21:58;20.60;86.10
42965;DHT22;28604;51.204;22.552;2023-06-24T02:24:26;20.50;86.10
42965;DHT22;28604;51.204;22.552;2023-06-24T02:26:54;20.50;86.30
42965;DHT22;28604;51.204;22.552;2023-06-24T02:29:21;20.50;86.20
42965;DHT22;28604;51.204;22.552;2023-06-24T02:31:49;20.50;87.20
42965;DHT22;28604;51.204;22.552;2023-06-24T02:34:15;20.40;86.30
42965;DHT22;28604;51.204;22.552;2023-06-24T02:36:42;20.40;86.10
42965;DHT22;28604;51.204;22.552;2023-06-24T02:39:07;20.40;86.00
42965;DHT22;28604;51.204;22.552;2023-06-24T02:41:34;20.30;86.50
42965;DHT22;28604;51.204;22.552;2023-06-24T02:43:59;20.30;86.50
42965;DHT22;28604;51.204;22.552;2023-06-24T02:46:27;20.30;86.80
42965;DHT22;28604;51.204;22.552;2023-06-24T02:48:56;20.30;86.60
42965;DHT22;28604;51.204;22.552;2023-06-24T02:51:23;20.30;86.50
42965;DHT22;28604;51.204;22.552;2023-06-24T02:53:50;20.30;86.30
42965;DHT22;28604;51.204;22.552;2023-06-24T02:56:19;20.30;86.30
42965;DHT22;28604;51.204;22.552;2023-06-24T02:58:47;20.20;86.00
42965;DHT22;28604;51.204;22.552;2023-06-24T03:01:23;20.30;86.00
42965;DHT22;28604;51.204;22.552;2023-06-24T03:03:53;20.20;87.50
42965;DHT22;28604;51.204;22.552;2023-06-24T03:06:21;20.20;87.10
42965;DHT22;28604;51.204;22.552;2023-06-24T03:08:48;20.30;87.20
42965;DHT22;28604;51.204;22.552;2023-06-24T03:11:17;20.30;86.60
42965;DHT22;28604;51.204;22.552;2023-06-24T03:13:43;20.20;86.20
42965;DHT22;28604;51.204;22.552;2023-06-24T03:16:25;20.20;86.50
42965;DHT22;28604;51.204;22.552;2023-06-24T03:18:58;20.20;86.10
42965;DHT22;28604;51.204;22.552;2023-06-24T03:21:24;20.20;86.10
42965;DHT22;28604;51.204;22.552;2023-06-24T03:23:55;20.10;86.00
42965;DHT22;28604;51.204;22.552;2023-06-24T03:26:21;20.10;85.90
42965;DHT22;28604;51.204;22.552;2023-06-24T03:28:47;20.10;85.70
42965;DHT22;28604;51.204;22.552;2023-06-24T03:31:16;20.20;85.70
42965;DHT22;28604;51.204;22.552;2023-06-24T03:33:42;20.20;85.80
42965;DHT22;28604;51.204;22.552;2023-06-24T03:36:11;20.20;85.70
42965;DHT22;28604;51.204;22.552;2023-06-24T03:38:37;20.20;85.50
42965;DHT22;28604;51.204;22.552;2023-06-24T03:41:03;20.30;85.80
42965;DHT22;28604;51.204;22.552;2023-06-24T03:43:29;20.30;86.00
42965;DHT22;28604;51.204;22.552;2023-06-24T03:45:56;20.20;85.80
42965;DHT22;28604;51.204;22.552;2023-06-24T03:48:22;20.30;85.80
42965;DHT22;28604;51.204;22.552;2023-06-24T03:50:48;20.30;86.00
42965;DHT22;28604;51.204;22.552;2023-06-24T03:53:14;20.30;86.30
42965;DHT22;28604;51.204;22.552;2023-06-24T03:55:40;20.30;86.20
42965;DHT22;28604;51.204;22.552;2023-06-24T03:58:06;20.40;86.30
42965;DHT22;28604;51.204;22.552;2023-06-24T04:00:34;20.40;86.00
42965;DHT22;28604;51.204;22.552;2023-06-24T04:03:01;20.50;85.70
42965;DHT22;28604;51.204;22.552;2023-06-24T04:05:27;20.50;85.90
42965;DHT22;28604;51.204;22.552;2023-06-24T04:07:54;20.50;85.30
42965;DHT22;28604;51.204;22.552;2023-06-24T04:10:20;20.50;85.60
42965;DHT22;28604;51.204;22.552;2023-06-24T04:12:46;20.60;85.30
42965;DHT22;28604;51.204;22.552;2023-06-24T04:15:13;20.60;84.80
42965;DHT22;28604;51.204;22.552;2023-06-24T04:17:39;20.60;84.50
42965;DHT22;28604;51.204;22.552;2023-06-24T04:20:06;20.70;84.40
42965;DHT22;28604;51.204;22.552;2023-06-24T04:22:41;20.60;84.50
42965;DHT22;28604;51.204;22.552;2023-06-24T04:25:08;20.70;84.20
42965;DHT22;28604;51.204;22.552;2023-06-24T04:27:35;20.70;84.30
42965;DHT22;28604;51.204;22.552;2023-06-24T04:30:02;20.60;84.10
42965;DHT22;28604;51.204;22.552;2023-06-24T04:32:30;20.60;84.40
42965;DHT22;28604;51.204;22.552;2023-06-24T04:34:58;20.70;84.30
42965;DHT22;28604;51.204;22.552;2023-06-24T04:37:25;20.70;84.50
42965;DHT22;28604;51.204;22.552;2023-06-24T04:39:52;20.60;84.00
42965;DHT22;28604;51.204;22.552;2023-06-24T04:42:17;20.60;83.90
42965;DHT22;28604;51.204;22.552;2023-06-24T04:44:43;20.70;83.80
42965;DHT22;28604;51.204;22.552;2023-06-24T04:47:09;20.60;83.50
42965;DHT22;28604;51.204;22.552;2023-06-24T04:49:35;20.70;83.80
42965;DHT22;28604;51.204;22.552;2023-06-24T04:52:02;20.70;83.90
42965;DHT22;28604;51.204;22.552;2023-06-24T04:54:28;20.70;83.60
42965;DHT22;28604;51.204;22.552;2023-06-24T04:56:54;20.70;83.30
42965;DHT22;28604;51.204;22.552;2023-06-24T04:59:24;20.60;83.50
42965;DHT22;28604;51.204;22.552;2023-06-24T05:01:50;20.70;83.90
42965;DHT22;28604;51.204;22.552;2023-06-24T05:04:16;20.60;83.20
42965;DHT22;28604;51.204;22.552;2023-06-24T05:06:42;20.70;83.10
42965;DHT22;28604;51.204;22.552;2023-06-24T05:09:08;20.70;83.20
42965;DHT22;28604;51.204;22.552;2023-06-24T05:11:39;20.70;83.10
42965;DHT22;28604;51.204;22.552;2023-06-24T05:14:05;20.70;83.10
42965;DHT22;28604;51.204;22.552;2023-06-24T05:16:31;20.70;83.10
42965;DHT22;28604;51.204;22.552;2023-06-24T05:18:57;20.80;82.90
42965;DHT22;28604;51.204;22.552;2023-06-24T05:21:23;20.90;82.60
42965;DHT22;28604;51.204;22.552;2023-06-24T05:23:49;21.00;82.60
42965;DHT22;28604;51.204;22.552;2023-06-24T05:26:15;21.00;82.50
42965;DHT22;28604;51.204;22.552;2023-06-24T05:28:41;21.00;82.50
42965;DHT22;28604;51.204;22.552;2023-06-24T05:31:06;21.20;82.60
42965;DHT22;28604;51.204;22.552;2023-06-24T05:33:33;21.30;82.50
42965;DHT22;28604;51.204;22.552;2023-06-24T05:35:58;21.30;82.40
42965;DHT22;28604;51.204;22.552;2023-06-24T05:38:24;21.50;81.80
42965;DHT22;28604;51.204;22.552;2023-06-24T05:40:50;21.50;81.90
42965;DHT22;28604;51.204;22.552;2023-06-24T05:43:16;21.60;81.60
42965;DHT22;28604;51.204;22.552;2023-06-24T05:45:42;21.70;81.40
42965;DHT22;28604;51.204;22.552;2023-06-24T05:48:09;21.70;81.40
42965;DHT22;28604;51.204;22.552;2023-06-24T05:50:34;21.90;81.00
42965;DHT22;28604;51.204;22.552;2023-06-24T05:53:01;22.00;81.00
42965;DHT22;28604;51.204;22.552;2023-06-24T05:55:26;22.10;80.30
42965;DHT22;28604;51.204;22.552;2023-06-24T05:57:52;22.20;80.60
42965;DHT22;28604;51.204;22.552;2023-06-24T06:00:18;22.40;80.60
42965;DHT22;28604;51.204;22.552;2023-06-24T06:02:45;22.60;80.60
42965;DHT22;28604;51.204;22.552;2023-06-24T06:05:10;22.80;80.10
42965;DHT22;28604;51.204;22.552;2023-06-24T06:07:36;22.90;80.30
42965;DHT22;28604;51.204;22.552;2023-06-24T06:10:06;23.00;78.70
42965;DHT22;28604;51.204;22.552;2023-06-24T06:12:32;23.20;78.30
42965;DHT22;28604;51.204;22.552;2023-06-24T06:14:58;23.30;78.30
42965;DHT22;28604;51.204;22.552;2023-06-24T06:17:24;23.30;77.60
42965;DHT22;28604;51.204;22.552;2023-06-24T06:19:50;23.40;77.20
42965;DHT22;28604;51.204;22.552;2023-06-24T06:22:16;23.50;76.90
42965;DHT22;28604;51.204;22.552;2023-06-24T06:24:43;23.60;76.50
42965;DHT22;28604;51.204;22.552;2023-06-24T06:27:10;23.80;76.00
42965;DHT22;28604;51.204;22.552;2023-06-24T06:29:36;23.80;75.20
42965;DHT22;28604;51.204;22.552;2023-06-24T06:32:02;23.90;75.60
42965;DHT22;28604;51.204;22.552;2023-06-24T06:34:28;24.00;75.10
42965;DHT22;28604;51.204;22.552;2023-06-24T06:36:55;24.20;74.60
42965;DHT22;28604;51.204;22.552;2023-06-24T06:39:20;24.30;74.40
42965;DHT22;28604;51.204;22.552;2023-06-24T06:41:46;24.60;74.10
42965;DHT22;28604;51.204;22.552;2023-06-24T06:44:15;25.00;74.00
42965;DHT22;28604;51.204;22.552;2023-06-24T06:46:41;25.40;73.20
42965;DHT22;28604;51.204;22.552;2023-06-24T06:49:07;26.00;71.90
42965;DHT22;28604;51.204;22.552;2023-06-24T06:51:33;26.60;71.30
42965;DHT22;28604;51.204;22.552;2023-06-24T06:54:00;27.10;70.40
42965;DHT22;28604;51.204;22.552;2023-06-24T06:56:26;27.70;68.50
42965;DHT22;28604;51.204;22.552;2023-06-24T06:58:52;28.20;66.70
42965;DHT22;28604;51.204;22.552;2023-06-24T07:01:18;28.60;65.30
42965;DHT22;28604;51.204;22.552;2023-06-24T07:03:44;28.90;63.80
42965;DHT22;28604;51.204;22.552;2023-06-24T07:06:11;29.20;64.20
42965;DHT22;28604;51.204;22.552;2023-06-24T07:08:36;29.60;61.60
42965;DHT22;28604;51.204;22.552;2023-06-24T07:11:03;29.70;61.60
42965;DHT22;28604;51.204;22.552;2023-06-24T07:13:29;30.10;61.80
42965;DHT22;28604;51.204;22.552;2023-06-24T07:15:55;30.30;60.80
42965;DHT22;28604;51.204;22.552;2023-06-24T07:18:21;30.50;59.30
42965;DHT22;28604;51.204;22.552;2023-06-24T07:20:47;30.80;58.60
42965;DHT22;28604;51.204;22.552;2023-06-24T07:23:13;31.00;58.60
42965;DHT22;28604;51.204;22.552;2023-06-24T07:25:39;31.30;57.70
42965;DHT22;28604;51.204;22.552;2023-06-24T07:28:04;31.50;57.10
42965;DHT22;28604;51.204;22.552;2023-06-24T07:30:30;31.80;56.40
42965;DHT22;28604;51.204;22.552;2023-06-24T07:32:56;32.10;57.80
42965;DHT22;28604;51.204;22.552;2023-06-24T07:35:22;32.30;57.20
42965;DHT22;28604;51.204;22.552;2023-06-24T07:37:48;32.60;56.40
42965;DHT22;28604;51.204;22.552;2023-06-24T07:40:14;32.80;55.60
42965;DHT22;28604;51.204;22.552;2023-06-24T07:42:41;33.10;54.90
42965;DHT22;28604;51.204;22.552;2023-06-24T07:45:07;33.50;53.40
42965;DHT22;28604;51.204;22.552;2023-06-24T07:47:33;33.70;52.80
42965;DHT22;28604;51.204;22.552;2023-06-24T07:49:59;33.90;53.00
42965;DHT22;28604;51.204;22.552;2023-06-24T07:52:25;33.90;52.70
42965;DHT22;28604;51.204;22.552;2023-06-24T07:54:51;34.10;52.70
42965;DHT22;28604;51.204;22.552;2023-06-24T07:57:17;34.30;52.30
42965;DHT22;28604;51.204;22.552;2023-06-24T07:59:43;34.40;52.30
42965;DHT22;28604;51.204;22.552;2023-06-24T08:02:09;34.80;51.50
42965;DHT22;28604;51.204;22.552;2023-06-24T08:04:35;34.90;51.30
42965;DHT22;28604;51.204;22.552;2023-06-24T08:07:03;35.00;51.20
42965;DHT22;28604;51.204;22.552;2023-06-24T08:09:29;35.00;51.90
42965;DHT22;28604;51.204;22.552;2023-06-24T08:11:55;34.90;51.80
42965;DHT22;28604;51.204;22.552;2023-06-24T08:14:21;34.70;51.60
42965;DHT22;28604;51.204;22.552;2023-06-24T08:16:47;34.40;51.50
42965;DHT22;28604;51.204;22.552;2023-06-24T08:19:13;34.20;52.80
42965;DHT22;28604;51.204;22.552;2023-06-24T08:21:39;34.10;52.70
42965;DHT22;28604;51.204;22.552;2023-06-24T08:24:06;34.00;50.90
42965;DHT22;28604;51.204;22.552;2023-06-24T08:26:32;33.90;51.70
42965;DHT22;28604;51.204;22.552;2023-06-24T08:28:58;33.80;51.30
42965;DHT22;28604;51.204;22.552;2023-06-24T08:31:25;33.60;51.60
42965;DHT22;28604;51.204;22.552;2023-06-24T08:33:52;33.30;51.20
42965;DHT22;28604;51.204;22.552;2023-06-24T08:36:22;33.00;52.20
42965;DHT22;28604;51.204;22.552;2023-06-24T08:38:49;32.90;52.70
42965;DHT22;28604;51.204;22.552;2023-06-24T08:41:15;32.70;52.40
42965;DHT22;28604;51.204;22.552;2023-06-24T08:43:41;32.50;52.60
42965;DHT22;28604;51.204;22.552;2023-06-24T08:46:08;32.30;52.10
42965;DHT22;28604;51.204;22.552;2023-06-24T08:48:35;32.00;52.70
42965;DHT22;28604;51.204;22.552;2023-06-24T08:51:07;31.70;52.80
42965;DHT22;28604;51.204;22.552;2023-06-24T08:53:35;31.50;53.50
42965;DHT22;28604;51.204;22.552;2023-06-24T08:56:01;31.30;53.30
42965;DHT22;28604;51.204;22.552;2023-06-24T08:58:28;31.10;54.40
42965;DHT22;28604;51.204;22.552;2023-06-24T09:00:54;31.10;54.60
42965;DHT22;28604;51.204;22.552;2023-06-24T09:03:20;31.00;55.10
42965;DHT22;28604;51.204;22.552;2023-06-24T09:05:46;30.80;54.40
42965;DHT22;28604;51.204;22.552;2023-06-24T09:08:12;30.90;54.90
42965;DHT22;28604;51.204;22.552;2023-06-24T09:10:37;31.10;55.20
42965;DHT22;28604;51.204;22.552;2023-06-24T09:13:05;31.10;53.90
42965;DHT22;28604;51.204;22.552;2023-06-24T09:15:32;31.20;53.90
42965;DHT22;28604;51.204;22.552;2023-06-24T09:17:59;31.30;53.40
42965;DHT22;28604;51.204;22.552;2023-06-24T09:20:27;31.30;53.50
42965;DHT22;28604;51.204;22.552;2023-06-24T09:23:00;31.30;52.30
42965;DHT22;28604;51.204;22.552;2023-06-24T09:25:27;31.20;52.90
42965;DHT22;28604;51.204;22.552;2023-06-24T09:27:53;31.30;52.50
42965;DHT22;28604;51.204;22.552;2023-06-24T09:30:24;31.30;53.20
42965;DHT22;28604;51.204;22.552;2023-06-24T09:32:52;31.20;53.30
42965;DHT22;28604;51.204;22.552;2023-06-24T09:35:19;31.20;53.50
42965;DHT22;28604;51.204;22.552;2023-06-24T09:37:50;31.20;52.90
42965;DHT22;28604;51.204;22.552;2023-06-24T09:40:16;31.00;52.50
42965;DHT22;28604;51.204;22.552;2023-06-24T09:43:08;30.90;52.10
42965;DHT22;28604;51.204;22.552;2023-06-24T09:45:34;30.90;53.20
42965;DHT22;28604;51.204;22.552;2023-06-24T09:48:00;30.80;52.40
42965;DHT22;28604;51.204;22.552;2023-06-24T09:50:26;30.70;52.60
42965;DHT22;28604;51.204;22.552;2023-06-24T09:52:53;30.60;53.40
42965;DHT22;28604;51.204;22.552;2023-06-24T09:55:21;30.60;53.70
42965;DHT22;28604;51.204;22.552;2023-06-24T09:57:50;30.70;54.10
42965;DHT22;28604;51.204;22.552;2023-06-24T10:00:18;30.70;53.30
42965;DHT22;28604;51.204;22.552;2023-06-24T10:02:45;30.60;53.10
42965;DHT22;28604;51.204;22.552;2023-06-24T10:05:13;30.50;52.60
42965;DHT22;28604;51.204;22.552;2023-06-24T10:07:40;30.50;52.50
42965;DHT22;28604;51.204;22.552;2023-06-24T10:10:07;30.40;52.10
42965;DHT22;28604;51.204;22.552;2023-06-24T10:12:37;30.40;52.20
42965;DHT22;28604;51.204;22.552;2023-06-24T10:15:04;30.30;51.90
42965;DHT22;28604;51.204;22.552;2023-06-24T10:17:31;30.30;52.40
42965;DHT22;28604;51.204;22.552;2023-06-24T10:19:57;30.20;52.70
42965;DHT22;28604;51.204;22.552;2023-06-24T10:22:23;30.10;53.20
42965;DHT22;28604;51.204;22.552;2023-06-24T10:24:52;30.00;53.40
42965;DHT22;28604;51.204;22.552;2023-06-24T10:27:21;30.00;53.80
42965;DHT22;28604;51.204;22.552;2023-06-24T10:29:52;30.00;53.70
42965;DHT22;28604;51.204;22.552;2023-06-24T10:32:19;30.00;53.10
42965;DHT22;28604;51.204;22.552;2023-06-24T10:34:49;30.00;53.40
42965;DHT22;28604;51.204;22.552;2023-06-24T10:37:21;29.90;53.50
42965;DHT22;28604;51.204;22.552;2023-06-24T10:39:55;29.90;53.90
42965;DHT22;28604;51.204;22.552;2023-06-24T10:42:43;29.90;53.20
42965;DHT22;28604;51.204;22.552;2023-06-24T10:47:40;30.00;54.00
42965;DHT22;28604;51.204;22.552;2023-06-24T10:50:09;30.00;54.00
42965;DHT22;28604;51.204;22.552;2023-06-24T10:52:40;30.10;53.80
42965;DHT22;28604;51.204;22.552;2023-06-24T10:55:06;30.10;53.60
42965;DHT22;28604;51.204;22.552;2023-06-24T10:57:36;30.20;52.80
42965;DHT22;28604;51.204;22.552;2023-06-24T11:00:03;30.20;51.80
42965;DHT22;28604;51.204;22.552;2023-06-24T11:02:29;30.10;50.20
42965;DHT22;28604;51.204;22.552;2023-06-24T11:04:58;30.20;51.20
42965;DHT22;28604;51.204;22.552;2023-06-24T11:07:26;30.30;51.00
42965;DHT22;28604;51.204;22.552;2023-06-24T11:10:00;30.30;51.20
42965;DHT22;28604;51.204;22.552;2023-06-24T11:12:30;30.20;51.30
42965;DHT22;28604;51.204;22.552;2023-06-24T11:15:17;30.20;51.90
42965;DHT22;28604;51.204;22.552;2023-06-24T11:17:43;30.20;51.80
42965;DHT22;28604;51.204;22.552;2023-06-24T11:20:13;30.20;51.50
42965;DHT22;28604;51.204;22.552;2023-06-24T11:22:40;30.20;51.70
42965;DHT22;28604;51.204;22.552;2023-06-24T11:25:14;30.20;51.80
42965;DHT22;28604;51.204;22.552;2023-06-24T11:27:40;30.20;52.40
42965;DHT22;28604;51.204;22.552;2023-06-24T11:30:07;30.20;52.30
42965;DHT22;28604;51.204;22.552;2023-06-24T11:32:40;30.30;52.40
42965;DHT22;28604;51.204;22.552;2023-06-24T11:35:08;30.20;51.90
42965;DHT22;28604;51.204;22.552;2023-06-24T11:37:35;30.20;52.30
42965;DHT22;28604;51.204;22.552;2023-06-24T11:40:07;30.20;51.70
42965;DHT22;28604;51.204;22.552;2023-06-24T11:42:38;30.30;51.90
42965;DHT22;28604;51.204;22.552;2023-06-24T11:45:11;30.30;51.60
42965;DHT22;28604;51.204;22.552;2023-06-24T11:47:38;30.30;52.20
42965;DHT22;28604;51.204;22.552;2023-06-24T11:50:05;30.20;52.50
42965;DHT22;28604;51.204;22.552;2023-06-24T11:55:01;30.20;52.30
42965;DHT22;28604;51.204;22.552;2023-06-24T12:00:14;30.10;52.40
42965;DHT22;28604;51.204;22.552;2023-06-24T12:02:40;30.20;51.90
42965;DHT22;28604;51.204;22.552;2023-06-24T12:05:06;30.10;52.30
42965;DHT22;28604;51.204;22.552;2023-06-24T12:07:32;30.10;52.50
42965;DHT22;28604;51.204;22.552;2023-06-24T12:09:58;30.00;52.90
42965;DHT22;28604;51.204;22.552;2023-06-24T12:12:24;30.00;53.10
42965;DHT22;28604;51.204;22.552;2023-06-24T12:14:50;29.90;53.20
42965;DHT22;28604;51.204;22.552;2023-06-24T12:17:16;29.80;53.30
42965;DHT22;28604;51.204;22.552;2023-06-24T12:19:42;29.70;54.30
42965;DHT22;28604;51.204;22.552;2023-06-24T12:22:08;29.70;54.90
42965;DHT22;28604;51.204;22.552;2023-06-24T12:24:34;29.60;55.20
42965;DHT22;28604;51.204;22.552;2023-06-24T12:27:00;29.50;55.40
42965;DHT22;28604;51.204;22.552;2023-06-24T12:29:26;29.40;55.40
42965;DHT22;28604;51.204;22.552;2023-06-24T12:31:52;29.40;55.10
42965;DHT22;28604;51.204;22.552;2023-06-24T12:34:19;29.30;55.50
42965;DHT22;28604;51.204;22.552;2023-06-24T12:36:46;29.30;55.60
42965;DHT22;28604;51.204;22.552;2023-06-24T12:39:12;29.30;55.30
42965;DHT22;28604;51.204;22.552;2023-06-24T12:41:38;29.30;54.60
42965;DHT22;28604;51.204;22.552;2023-06-24T13:01:08;29.20;54.60
42965;DHT22;28604;51.204;22.552;2023-06-24T13:32:51;29.40;53.70
42965;DHT22;28604;51.204;22.552;2023-06-24T14:09:37;29.80;54.20
42965;DHT22;28604;51.204;22.552;2023-06-24T14:34:14;28.40;61.60
42965;DHT22;28604;51.204;22.552;2023-06-24T15:03:30;27.20;70.70
42965;DHT22;28604;51.204;22.552;2023-06-24T15:35:16;26.50;67.00
42965;DHT22;28604;51.204;22.552;2023-06-24T15:37:42;26.30;62.50
42965;DHT22;28604;51.204;22.552;2023-06-24T15:40:08;26.20;61.80
42965;DHT22;28604;51.204;22.552;2023-06-24T15:42:35;26.10;61.70
42965;DHT22;28604;51.204;22.552;2023-06-24T15:45:00;26.10;61.40
42965;DHT22;28604;51.204;22.552;2023-06-24T15:47:27;26.10;61.60
42965;DHT22;28604;51.204;22.552;2023-06-24T15:57:12;26.10;60.90
42965;DHT22;28604;51.204;22.552;2023-06-24T15:59:38;25.80;60.70
42965;DHT22;28604;51.204;22.552;2023-06-24T16:02:05;25.80;61.10
42965;DHT22;28604;51.204;22.552;2023-06-24T16:04:31;25.70;61.30
42965;DHT22;28604;51.204;22.552;2023-06-24T16:06:57;25.70;61.30
42965;DHT22;28604;51.204;22.552;2023-06-24T16:09:23;25.70;61.40
42965;DHT22;28604;51.204;22.552;2023-06-24T16:11:49;25.60;60.70
42965;DHT22;28604;51.204;22.552;2023-06-24T16:31:20;25.50;60.20
42965;DHT22;28604;51.204;22.552;2023-06-24T16:33:46;25.40;60.80
42965;DHT22;28604;51.204;22.552;2023-06-24T16:36:12;25.30;61.00
42965;DHT22;28604;51.204;22.552;2023-06-24T16:38:38;25.20;61.70
42965;DHT22;28604;51.204;22.552;2023-06-24T16:41:04;25.20;61.40
42965;DHT22;28604;51.204;22.552;2023-06-24T16:43:31;25.10;62.00
42965;DHT22;28604;51.204;22.552;2023-06-24T16:45:57;25.00;62.80
42965;DHT22;28604;51.204;22.552;2023-06-24T16:53:15;25.00;63.50
42965;DHT22;28604;51.204;22.552;2023-06-24T16:55:41;25.10;63.60
42965;DHT22;28604;51.204;22.552;2023-06-24T16:58:07;25.10;63.80
42965;DHT22;28604;51.204;22.552;2023-06-24T17:00:33;25.10;64.00
42965;DHT22;28604;51.204;22.552;2023-06-24T17:02:59;25.10;64.20
42965;DHT22;28604;51.204;22.552;2023-06-24T17:05:25;25.10;64.50
42965;DHT22;28604;51.204;22.552;2023-06-24T17:07:51;25.00;64.80
42965;DHT22;28604;51.204;22.552;2023-06-24T17:15:09;25.10;64.90
42965;DHT22;28604;51.204;22.552;2023-06-24T17:17:35;25.00;65.90
42965;DHT22;28604;51.204;22.552;2023-06-24T17:20:03;24.90;65.70
42965;DHT22;28604;51.204;22.552;2023-06-24T17:22:29;24.90;66.00
42965;DHT22;28604;51.204;22.552;2023-06-24T17:24:55;25.00;65.70
42965;DHT22;28604;51.204;22.552;2023-06-24T17:27:21;24.90;66.80
42965;DHT22;28604;51.204;22.552;2023-06-24T17:29:47;24.90;66.40
42965;DHT22;28604;51.204;22.552;2023-06-24T17:32:14;24.80;66.50
42965;DHT22;28604;51.204;22.552;2023-06-24T17:34:40;24.80;66.50
42965;DHT22;28604;51.204;22.552;2023-06-24T17:37:06;24.80;66.60
42965;DHT22;28604;51.204;22.552;2023-06-24T17:39:32;24.70;66.70
42965;DHT22;28604;51.204;22.552;2023-06-24T17:41:58;24.70;67.00
42965;DHT22;28604;51.204;22.552;2023-06-24T17:44:24;24.70;67.20
42965;DHT22;28604;51.204;22.552;2023-06-24T17:51:42;24.60;66.80
42965;DHT22;28604;51.204;22.552;2023-06-24T17:54:08;24.60;67.00
42965;DHT22;28604;51.204;22.552;2023-06-24T17:56:34;24.60;67.00
42965;DHT22;28604;51.204;22.552;2023-06-24T17:59:00;24.50;66.80
42965;DHT22;28604;51.204;22.552;2023-06-24T18:01:26;24.40;67.10
42965;DHT22;28604;51.204;22.552;2023-06-24T18:03:55;24.40;67.30
42965;DHT22;28604;51.204;22.552;2023-06-24T18:06:21;24.40;67.90
42965;DHT22;28604;51.204;22.552;2023-06-24T18:08:47;24.40;67.10
42965;DHT22;28604;51.204;22.552;2023-06-24T18:11:13;24.40;67.00
42965;DHT22;28604;51.204;22.552;2023-06-24T18:13:39;24.30;67.10
42965;DHT22;28604;51.204;22.552;2023-06-24T18:16:05;24.30;67.40
42965;DHT22;28604;51.204;22.552;2023-06-24T18:18:31;24.20;67.50
42965;DHT22;28604;51.204;22.552;2023-06-24T18:20:58;24.20;68.40
42965;DHT22;28604;51.204;22.552;2023-06-24T18:23:24;24.10;69.70
42965;DHT22;28604;51.204;22.552;2023-06-24T18:30:43;24.10;70.60
42965;DHT22;28604;51.204;22.552;2023-06-24T18:33:09;24.00;70.50
42965;DHT22;28604;51.204;22.552;2023-06-24T18:35:35;23.90;71.00
42965;DHT22;28604;51.204;22.552;2023-06-24T18:38:01;23.90;71.90
42965;DHT22;28604;51.204;22.552;2023-06-24T18:40:27;23.80;71.40
42965;DHT22;28604;51.204;22.552;2023-06-24T18:42:53;23.90;71.30
42965;DHT22;28604;51.204;22.552;2023-06-24T18:45:19;23.70;71.50
42965;DHT22;28604;51.204;22.552;2023-06-24T18:47:45;23.70;71.30
42965;DHT22;28604;51.204;22.552;2023-06-24T18:55:03;23.60;71.20
42965;DHT22;28604;51.204;22.552;2023-06-24T18:57:29;23.50;72.30
42965;DHT22;28604;51.204;22.552;2023-06-24T18:59:55;23.40;72.30
42965;DHT22;28604;51.204;22.552;2023-06-24T19:02:21;23.30;72.60